KISP/ISP METAR and TAF weather

Enter ICAO airport designator
Station Type Date Time Source
KISP METAR 2024/05/28 23:56 UTC NOAA

KISP 282356Z 31010KT 10SM FEW065 24/11 A2975 RMK AO2 SLP073 T02440111 10272 20244 53010


Station Type Date Time Source
KISP Decoded METAR 2024/05/28 23:56 UTC NOAA

ISLIP LONG ISLAND MAC ART, NY, United States (KISP) 40-48N 073-06W 43M
May 28, 2024 - 07:56 PM EDT / 2024.05.28 2356 UTC
Wind: from the NW (310 degrees) at 12 MPH (10 KT):0
Visibility: 10 mile(s):0
Sky conditions: mostly clear
Temperature: 75.9 F (24.4 C)
Dew Point: 52.0 F (11.1 C)
Relative Humidity: 43%
Pressure (altimeter): 29.75 in. Hg (1007 hPa)
Pressure tendency: 0.03 inches (1.0 hPa) higher than three hours ago
ob: KISP 282356Z 31010KT 10SM FEW065 24/11 A2975 RMK AO2 SLP073 T02440111 10272 20244 53010
cycle: 0

Station Type Date Time Source
KISP TAF 2024/05/28 20:40 UTC NOAA